createdAt,value
2022-12-08T00:01:10.692Z,98995.20
2022-12-08T00:06:47.310Z,99010.80
2022-12-08T00:12:05.416Z,99003.40
2022-12-08T00:17:17.427Z,98994.80
2022-12-08T00:22:26.890Z,99005.00
2022-12-08T00:27:36.427Z,99003.00
2022-12-08T00:32:45.865Z,99002.20
2022-12-08T00:38:00.582Z,99008.80
2022-12-08T00:43:10.917Z,99019.80
2022-12-08T00:48:20.538Z,99038.00
2022-12-08T00:53:30.123Z,99042.20
2022-12-08T00:58:39.963Z,99048.20
2022-12-08T01:03:49.658Z,99061.20
2022-12-08T01:08:59.109Z,99063.20
2022-12-08T01:14:09.213Z,99060.80
2022-12-08T01:19:20.742Z,99066.20
2022-12-08T01:24:30.142Z,99066.00
2022-12-08T01:29:39.897Z,99073.00
2022-12-08T01:34:49.294Z,99074.80
2022-12-08T01:39:58.657Z,99078.20
2022-12-08T01:45:15.738Z,99089.20
2022-12-08T01:50:26.530Z,99084.60
2022-12-08T01:55:42.719Z,99086.60
2022-12-08T02:00:53.546Z,99094.20
2022-12-08T02:06:04.190Z,99095.40
2022-12-08T02:11:15.919Z,99099.60
2022-12-08T02:16:42.383Z,99101.80
2022-12-08T02:22:01.349Z,99098.80
2022-12-08T02:27:42.345Z,99101.60
2022-12-08T02:33:39.027Z,99096.80
2022-12-08T02:39:02.593Z,99095.60
2022-12-08T02:44:21.778Z,99100.00
2022-12-08T02:49:36.850Z,99112.60
2022-12-08T02:54:51.492Z,99118.20
2022-12-08T03:00:14.398Z,99114.60
2022-12-08T03:05:45.599Z,99121.80
2022-12-08T03:11:03.130Z,99129.00
2022-12-08T03:16:20.107Z,99135.80
2022-12-08T03:21:31.116Z,99128.60
2022-12-08T03:26:48.180Z,99131.60
2022-12-08T03:32:02.783Z,99135.40
2022-12-08T03:37:12.133Z,99138.00
2022-12-08T03:42:21.624Z,99144.40
2022-12-08T03:47:31.049Z,99150.60
2022-12-08T03:52:41.189Z,99158.40
2022-12-08T03:57:50.960Z,99155.40
2022-12-08T04:03:00.827Z,99154.80
2022-12-08T04:08:10.700Z,99165.80
2022-12-08T04:13:20.464Z,99169.60
2022-12-08T04:18:30.042Z,99169.00
2022-12-08T04:23:39.679Z,99172.80
2022-12-08T04:28:49.439Z,99183.20
2022-12-08T04:33:59.156Z,99198.00
2022-12-08T04:39:08.747Z,99199.20
2022-12-08T04:44:18.522Z,99205.40
2022-12-08T04:49:28.308Z,99203.80
2022-12-08T04:54:38.133Z,99209.60
2022-12-08T04:59:47.832Z,99216.40
2022-12-08T05:04:57.321Z,99216.40
2022-12-08T05:10:07.999Z,99223.40
2022-12-08T05:15:18.220Z,99220.80
2022-12-08T05:20:27.945Z,99225.20
2022-12-08T05:25:37.316Z,99235.60
2022-12-08T05:30:46.963Z,99232.20
2022-12-08T05:35:56.306Z,99235.40
2022-12-08T05:41:07.087Z,99232.40
2022-12-08T05:46:17.671Z,99242.00
2022-12-08T05:51:28.227Z,99241.40
2022-12-08T05:56:38.050Z,99258.00
2022-12-08T06:01:47.852Z,99255.00
2022-12-08T06:06:57.283Z,99257.60
2022-12-08T06:12:07.822Z,99265.60
2022-12-08T06:17:17.349Z,99277.80
2022-12-08T06:22:26.927Z,99277.20
2022-12-08T06:27:36.456Z,99277.20
2022-12-08T06:32:46.195Z,99287.20
2022-12-08T06:37:55.632Z,99288.00
2022-12-08T06:43:05.378Z,99293.20
2022-12-08T06:48:14.768Z,99292.20
2022-12-08T06:53:24.290Z,99298.80
2022-12-08T06:58:33.926Z,99300.60
2022-12-08T07:03:44.967Z,99309.00
2022-12-08T07:08:54.843Z,99321.20
2022-12-08T07:14:04.582Z,99332.80
2022-12-08T07:19:13.988Z,99334.40
2022-12-08T07:24:23.675Z,99339.80
2022-12-08T07:29:33.086Z,99342.60
2022-12-08T07:34:42.457Z,99358.60
2022-12-08T07:39:51.897Z,99357.80
2022-12-08T07:45:01.699Z,99372.20
2022-12-08T07:50:13.175Z,99376.80
2022-12-08T07:55:22.726Z,99377.00
2022-12-08T08:00:32.675Z,99380.20
2022-12-08T08:05:43.827Z,99387.60
2022-12-08T08:10:53.395Z,99395.20
2022-12-08T08:16:11.374Z,99389.40
2022-12-08T08:21:44.994Z,99386.80
2022-12-08T08:26:53.851Z,99391.80
2022-12-08T08:32:03.400Z,99395.40
2022-12-08T08:37:12.954Z,99408.00
2022-12-08T08:42:22.799Z,99412.80
2022-12-08T08:47:32.415Z,99419.40
2022-12-08T08:52:42.070Z,99426.60
2022-12-08T08:57:51.655Z,99426.00
2022-12-08T09:03:01.488Z,99431.20
2022-12-08T09:08:11.176Z,99426.00
2022-12-08T09:13:20.729Z,99426.00
2022-12-08T09:18:30.469Z,99429.20
2022-12-08T09:23:40.297Z,99431.00
2022-12-08T09:28:50.359Z,99432.80
2022-12-08T09:34:00.631Z,99436.40
2022-12-08T09:39:10.622Z,99440.40
2022-12-08T09:44:47.548Z,99436.20
2022-12-08T09:50:08.167Z,99434.60
2022-12-08T09:55:26.140Z,99432.20
2022-12-08T10:00:38.909Z,99429.20
2022-12-08T10:05:57.843Z,99423.40
2022-12-08T10:11:21.386Z,99416.40
2022-12-08T10:16:40.687Z,99409.60
2022-12-08T10:21:50.603Z,99409.80
2022-12-08T10:27:02.047Z,99407.00
2022-12-08T10:32:22.472Z,99405.20
2022-12-08T10:37:32.217Z,99405.00
2022-12-08T10:42:44.985Z,99408.40
2022-12-08T10:48:04.606Z,99413.60
2022-12-08T10:53:25.250Z,99414.40
2022-12-08T10:58:40.928Z,99414.00
2022-12-08T11:03:55.663Z,99412.80
2022-12-08T11:09:23.651Z,99410.00
2022-12-08T11:14:39.669Z,99392.20
2022-12-08T11:20:00.408Z,99394.80
2022-12-08T11:25:20.306Z,99388.00
2022-12-08T11:30:34.124Z,99384.80
2022-12-08T11:35:47.197Z,99377.00
2022-12-08T11:41:01.899Z,99372.60
2022-12-08T11:46:21.613Z,99367.20
2022-12-08T11:51:38.902Z,99367.00
2022-12-08T11:56:54.274Z,99363.80
2022-12-08T12:02:06.773Z,99360.00
2022-12-08T12:07:58.226Z,99360.00
2022-12-08T12:13:42.204Z,99357.40
2022-12-08T12:18:56.739Z,99348.20
2022-12-08T12:24:12.587Z,99340.20
2022-12-08T12:29:25.685Z,99338.20
2022-12-08T12:34:40.522Z,99338.40
2022-12-08T12:39:59.837Z,99331.20
2022-12-08T12:45:32.015Z,99314.00
2022-12-08T12:50:48.877Z,99296.40
2022-12-08T12:56:01.260Z,99305.00
2022-12-08T13:01:52.805Z,99293.80
2022-12-08T13:07:05.201Z,99293.60
2022-12-08T13:12:25.116Z,99300.60
2022-12-08T13:17:38.827Z,99285.40
2022-12-08T13:23:43.918Z,99287.40
2022-12-08T13:29:27.321Z,99284.00
2022-12-08T13:34:43.648Z,99276.40
2022-12-08T13:40:00.542Z,99277.60
2022-12-08T13:57:02.772Z,99282.60
2022-12-08T14:02:05.485Z,99277.20
2022-12-08T14:07:16.974Z,99283.20
2022-12-08T14:12:29.618Z,99277.60
2022-12-08T14:17:40.655Z,99274.20
2022-12-08T14:22:53.221Z,99276.80
2022-12-08T14:28:06.764Z,99280.80
2022-12-08T14:33:19.553Z,99282.00
2022-12-08T14:38:30.060Z,99271.60
2022-12-08T14:43:41.379Z,99278.80
2022-12-08T14:48:53.934Z,99278.20
2022-12-08T14:54:09.976Z,99281.60
2022-12-08T14:59:26.639Z,99273.20
2022-12-08T15:04:38.777Z,99282.20
2022-12-08T15:09:51.438Z,99283.20
2022-12-08T15:15:16.139Z,99281.20
2022-12-08T15:20:41.873Z,99281.00
2022-12-08T15:25:51.719Z,99290.80
2022-12-08T15:31:02.008Z,99295.40
2022-12-08T15:36:13.526Z,99296.40
2022-12-08T15:41:22.885Z,99293.60
2022-12-08T15:46:32.494Z,99293.20
2022-12-08T15:51:42.060Z,99289.40
2022-12-08T15:57:18.435Z,99287.40
2022-12-08T16:02:34.334Z,99288.40
2022-12-08T16:07:57.826Z,99295.80
2022-12-08T16:13:56.168Z,99298.60
2022-12-08T16:18:56.975Z,99299.60
2022-12-08T16:24:09.442Z,99297.60
2022-12-08T16:29:24.447Z,99304.40
2022-12-08T16:34:33.907Z,99294.40
2022-12-08T16:39:45.878Z,99297.40
2022-12-08T16:44:55.779Z,99297.40
2022-12-08T16:50:09.521Z,99305.40
2022-12-08T16:55:21.369Z,99302.80
2022-12-08T17:00:37.182Z,99289.00
2022-12-08T17:05:47.959Z,99280.20
2022-12-08T17:11:09.150Z,99284.40
2022-12-08T17:16:21.948Z,99291.20
2022-12-08T17:21:31.743Z,99286.60
2022-12-08T17:26:41.324Z,99291.80
2022-12-08T17:31:51.491Z,99296.00
2022-12-08T17:37:01.157Z,99295.40
2022-12-08T17:42:11.605Z,99297.40
2022-12-08T17:47:21.051Z,99297.00
2022-12-08T17:52:30.616Z,99304.60
2022-12-08T17:57:40.197Z,99296.60
2022-12-08T18:02:49.995Z,99286.20
2022-12-08T18:08:01.089Z,99278.80
2022-12-08T18:13:10.884Z,99279.80
2022-12-08T18:18:22.926Z,99273.80
2022-12-08T18:23:32.816Z,99277.60
2022-12-08T18:28:42.998Z,99267.00
2022-12-08T18:33:53.805Z,99260.60
2022-12-08T18:39:10.183Z,99261.60
2022-12-08T18:44:20.884Z,99241.20
2022-12-08T18:49:30.715Z,99242.80
2022-12-08T18:55:05.229Z,99237.40
2022-12-08T19:00:15.894Z,99256.20
2022-12-08T19:05:25.692Z,99258.80
2022-12-08T19:10:38.754Z,99250.60
2022-12-08T19:15:48.493Z,99244.20
2022-12-08T19:20:59.908Z,99243.00
2022-12-08T19:26:12.150Z,99246.80
2022-12-08T19:31:21.902Z,99242.80
2022-12-08T19:36:35.664Z,99243.20
2022-12-08T19:42:03.023Z,99242.40
2022-12-08T19:47:12.805Z,99243.20
2022-12-08T19:52:22.852Z,99234.00
2022-12-08T19:57:32.977Z,99229.80
2022-12-08T20:02:42.573Z,99229.80
2022-12-08T20:07:55.835Z,99240.80
2022-12-08T20:13:35.539Z,99241.00
2022-12-08T20:18:48.037Z,99239.00
2022-12-08T20:23:57.821Z,99231.40
2022-12-08T20:29:07.319Z,99240.40
2022-12-08T20:34:20.692Z,99241.00
2022-12-08T20:39:30.270Z,99249.00
2022-12-08T20:44:43.651Z,99250.80
2022-12-08T20:49:53.419Z,99262.20
2022-12-08T20:55:03.034Z,99270.80
2022-12-08T21:00:15.591Z,99263.00
2022-12-08T21:05:25.575Z,99267.80
2022-12-08T21:10:42.179Z,99265.80
2022-12-08T21:15:53.818Z,99268.40
2022-12-08T21:21:10.623Z,99270.80
2022-12-08T21:26:23.633Z,99276.40
2022-12-08T21:31:33.717Z,99288.40
2022-12-08T21:36:43.419Z,99288.40
2022-12-08T21:42:10.801Z,99295.40
2022-12-08T21:47:20.640Z,99290.00
2022-12-08T21:52:30.660Z,99300.80
2022-12-08T21:57:40.708Z,99290.20
2022-12-08T22:02:50.266Z,99296.20
2022-12-08T22:08:00.117Z,99302.00
2022-12-08T22:13:09.632Z,99303.80
2022-12-08T22:18:19.474Z,99304.20
2022-12-08T22:23:29.662Z,99298.80
2022-12-08T22:28:42.883Z,99306.20
2022-12-08T22:33:53.895Z,99310.60
2022-12-08T22:39:05.296Z,99301.60
2022-12-08T22:44:17.577Z,99308.20
2022-12-08T22:49:28.720Z,99310.20
2022-12-08T22:54:38.711Z,99310.00
2022-12-08T22:59:48.313Z,99315.00
2022-12-08T23:05:00.004Z,99316.80
2022-12-08T23:10:12.408Z,99327.60
2022-12-08T23:15:22.560Z,99321.40
2022-12-08T23:20:32.139Z,99329.00
2022-12-08T23:25:45.221Z,99327.00
2022-12-08T23:30:55.295Z,99320.00
2022-12-08T23:36:05.133Z,99317.20
2022-12-08T23:41:17.340Z,99332.60
2022-12-08T23:46:27.776Z,99327.40
2022-12-08T23:51:38.172Z,99335.20
2022-12-08T23:56:48.367Z,99332.00
